Time;durP1;ratioP1;P1;durP2;ratioP2;P2;SDS_P1;SDS_P2;PMS_P1;PMS_P2;Temp;Humidity;BMP_temperature;BMP_pressure;BME280_temperature;BME280_humidity;BME280_pressure;Samples;Min_cycle;Max_cycle;Signal;HPM_P1;HPM_P2
2021/11/02 00:00:23;;;;;;;11.68;2.10;;;7.00;99.90;;;;;;5060367;28;20024;-59
2021/11/02 00:02:49;;;;;;;9.88;1.92;;;7.00;99.90;;;;;;5064082;28;20030;-59
2021/11/02 00:05:15;;;;;;;9.50;1.90;;;7.00;99.90;;;;;;5067673;28;20382;-60
2021/11/02 00:07:40;;;;;;;15.95;2.08;;;7.00;99.90;;;;;;5050303;28;20021;-59
2021/11/02 00:10:07;;;;;;;8.57;2.20;;;7.00;99.90;;;;;;5050715;28;20107;-57
2021/11/02 00:12:33;;;;;;;9.02;2.75;;;7.10;99.90;;;;;;5060738;28;20139;-59
2021/11/02 00:14:59;;;;;;;7.35;1.80;;;7.10;99.90;;;;;;5050890;28;20107;-60
2021/11/02 00:17:27;;;;;;;7.75;2.05;;;7.10;99.90;;;;;;5061292;28;20119;-58
2021/11/02 00:19:58;;;;;;;5.20;1.70;;;7.20;99.90;;;;;;5074132;28;20070;-58
2021/11/02 00:22:26;;;;;;;10.55;2.38;;;7.30;99.90;;;;;;5040138;28;20056;-59
2021/11/02 00:27:23;;;;;;;10.95;2.92;;;7.30;99.90;;;;;;5072156;28;20732;-60
2021/11/02 00:29:48;;;;;;;6.28;2.33;;;7.40;99.90;;;;;;5068473;28;20036;-60
2021/11/02 00:32:14;;;;;;;5.47;1.55;;;7.40;99.90;;;;;;5068901;28;20041;-59
2021/11/02 00:34:39;;;;;;;7.22;1.60;;;7.50;99.90;;;;;;5072510;28;20054;-59
2021/11/02 00:37:06;;;;;;;7.38;2.17;;;7.50;99.90;;;;;;5072536;28;20054;-59
2021/11/02 00:39:31;;;;;;;7.75;1.70;;;7.50;99.90;;;;;;5074026;28;20052;-59
2021/11/02 00:41:57;;;;;;;5.57;1.73;;;7.50;99.90;;;;;;5060020;28;20090;-59
2021/11/02 00:44:23;;;;;;;16.63;1.92;;;7.50;99.90;;;;;;5073016;28;20025;-57
2021/11/02 00:46:51;;;;;;;6.13;1.63;;;7.60;99.90;;;;;;5070496;28;20035;-58
2021/11/02 00:49:18;;;;;;;3.65;1.48;;;7.60;99.90;;;;;;5073137;28;20028;-59
2021/11/02 00:51:48;;;;;;;14.18;1.98;;;7.60;99.90;;;;;;5069351;28;20021;-58
2021/11/02 00:54:15;;;;;;;6.25;1.65;;;7.70;99.90;;;;;;5054428;28;20029;-59
2021/11/02 00:56:41;;;;;;;9.95;2.58;;;7.70;99.90;;;;;;5065648;28;20103;-59
2021/11/02 00:59:08;;;;;;;9.52;1.55;;;7.70;99.90;;;;;;5073580;28;20032;-58
2021/11/02 01:01:34;;;;;;;5.40;1.40;;;7.80;99.90;;;;;;5064607;28;20024;-61
2021/11/02 01:04:04;;;;;;;3.70;2.00;;;7.70;99.90;;;;;;5069250;28;20070;-57
2021/11/02 01:06:31;;;;;;;12.98;1.67;;;7.70;99.90;;;;;;5064266;28;20055;-59
2021/11/02 01:08:57;;;;;;;6.80;1.65;;;7.80;99.90;;;;;;5072648;28;20563;-59
2021/11/02 01:11:22;;;;;;;4.10;1.70;;;7.80;99.90;;;;;;5079899;28;20024;-58
2021/11/02 01:13:48;;;;;;;5.97;1.50;;;7.80;99.90;;;;;;5070863;28;20028;-60
2021/11/02 01:16:14;;;;;;;5.95;1.65;;;7.80;99.90;;;;;;5078837;28;20035;-59
2021/11/02 01:18:39;;;;;;;7.63;1.60;;;7.80;99.90;;;;;;5077509;28;20135;-58
2021/11/02 01:21:05;;;;;;;8.15;1.63;;;7.80;99.90;;;;;;5066784;28;20108;-58
2021/11/02 01:23:32;;;;;;;6.65;1.50;;;7.90;99.90;;;;;;5047089;28;20139;-57
2021/11/02 01:25:58;;;;;;;9.63;2.20;;;7.80;99.90;;;;;;5068812;28;20082;-54
2021/11/02 01:28:24;;;;;;;6.20;1.98;;;7.90;99.90;;;;;;5071367;28;20028;-55
2021/11/02 01:30:50;;;;;;;7.25;1.63;;;7.90;99.90;;;;;;5067203;28;20115;-57
2021/11/02 01:33:16;;;;;;;10.25;1.38;;;7.80;99.90;;;;;;5068558;28;20034;-56
2021/11/02 01:35:42;;;;;;;4.88;1.38;;;7.90;99.90;;;;;;5065707;28;20040;-56
2021/11/02 01:38:09;;;;;;;10.63;2.20;;;7.90;99.90;;;;;;5067586;28;20036;-56
2021/11/02 01:40:35;;;;;;;12.20;1.73;;;7.90;99.90;;;;;;5071587;28;20378;-58
2021/11/02 01:43:00;;;;;;;4.72;1.70;;;7.90;99.90;;;;;;5064158;28;20039;-56
2021/11/02 01:45:29;;;;;;;5.22;1.73;;;7.90;99.90;;;;;;5041161;28;20025;-57
2021/11/02 01:47:55;;;;;;;11.23;1.95;;;7.90;99.90;;;;;;5065307;28;20074;-57
2021/11/02 01:50:21;;;;;;;8.68;2.20;;;7.90;99.90;;;;;;5066916;28;20037;-56
2021/11/02 01:52:47;;;;;;;8.45;1.63;;;7.90;99.90;;;;;;5057003;28;20041;-55
2021/11/02 01:55:15;;;;;;;8.60;1.50;;;7.90;99.90;;;;;;5065159;28;20547;-58
2021/11/02 01:57:41;;;;;;;9.82;2.10;;;7.90;99.90;;;;;;5069728;28;20020;-56
2021/11/02 02:00:10;;;;;;;6.75;1.40;;;7.90;99.90;;;;;;5071608;28;20151;-59
2021/11/02 02:03:09;;;;;;;4.10;1.30;;;7.90;99.90;;;;;;5059251;28;20029;-57
2021/11/02 02:05:59;;;;;;;8.82;1.50;;;8.00;99.90;;;;;;5070639;28;20056;-56
2021/11/02 02:08:56;;;;;;;7.00;1.75;;;7.90;99.90;;;;;;5067841;28;20055;-55
2021/11/02 02:11:32;;;;;;;3.97;1.42;;;7.90;99.90;;;;;;5068812;28;20553;-57
2021/11/02 02:14:15;;;;;;;4.00;1.13;;;7.90;99.90;;;;;;5065147;28;20056;-56
2021/11/02 02:16:45;;;;;;;6.18;1.60;;;8.00;99.90;;;;;;5067376;28;20555;-58
2021/11/02 02:19:37;;;;;;;11.90;1.40;;;8.00;99.90;;;;;;5068768;28;20031;-58
2021/11/02 02:22:27;;;;;;;8.05;2.38;;;8.00;99.90;;;;;;5041189;28;20044;-58
2021/11/02 02:25:30;;;;;;;5.90;1.45;;;7.90;99.90;;;;;;5071156;28;20033;-58
2021/11/02 02:28:28;;;;;;;5.80;1.45;;;7.90;99.90;;;;;;5060942;28;20039;-57
2021/11/02 02:31:09;;;;;;;8.88;1.38;;;7.90;99.90;;;;;;5068974;28;20486;-57
2021/11/02 02:33:41;;;;;;;11.35;1.48;;;7.90;99.90;;;;;;5056968;28;20025;-58
2021/11/02 02:36:08;;;;;;;4.38;1.40;;;7.90;99.90;;;;;;5056863;28;20036;-57
2021/11/02 02:38:36;;;;;;;5.53;1.58;;;7.90;99.90;;;;;;5063852;28;20482;-54
2021/11/02 02:41:03;;;;;;;7.68;1.58;;;7.90;99.90;;;;;;5065032;28;20119;-59
2021/11/02 02:43:29;;;;;;;21.33;1.60;;;7.90;99.90;;;;;;5063721;28;20040;-59
2021/11/02 02:45:58;;;;;;;10.27;1.67;;;7.90;99.90;;;;;;5060896;28;20060;-58
2021/11/02 02:48:25;;;;;;;8.52;2.03;;;7.90;99.90;;;;;;5070394;28;20351;-57
2021/11/02 02:50:52;;;;;;;5.30;1.80;;;7.90;99.90;;;;;;5070104;28;20042;-59
2021/11/02 02:53:19;;;;;;;8.80;1.83;;;7.90;99.90;;;;;;5070422;28;20153;-59
2021/11/02 02:55:46;;;;;;;7.32;1.52;;;7.90;99.90;;;;;;5068657;28;20032;-59
2021/11/02 02:58:13;;;;;;;5.63;1.58;;;7.80;99.90;;;;;;5070945;28;20513;-57
2021/11/02 03:00:40;;;;;;;4.55;1.38;;;7.90;99.90;;;;;;5068260;28;20062;-59
2021/11/02 03:03:07;;;;;;;3.35;1.50;;;7.90;99.90;;;;;;5063903;28;20074;-58
2021/11/02 03:05:33;;;;;;;7.80;1.70;;;7.80;99.90;;;;;;5066335;28;20108;-56
2021/11/02 03:07:58;;;;;;;9.77;1.20;;;7.80;99.90;;;;;;5068542;28;20119;-58
2021/11/02 03:10:24;;;;;;;10.38;1.67;;;7.80;99.90;;;;;;5066058;28;20036;-58
2021/11/02 03:12:52;;;;;;;6.10;1.60;;;7.70;99.90;;;;;;5070169;28;20025;-58
2021/11/02 03:15:47;;;;;;;9.75;1.73;;;7.70;99.90;;;;;;5063163;28;20033;-56
2021/11/02 03:48:34;;;;;;;6.07;1.27;;;6.50;99.90;;;;;;5068012;28;20027;-57
2021/11/02 03:56:38;;;;;;;4.57;1.40;;;6.30;99.90;;;;;;5059268;28;20044;-58
2021/11/02 03:59:32;;;;;;;9.02;1.42;;;6.20;99.90;;;;;;5067637;28;20031;-57
2021/11/02 04:22:21;;;;;;;8.65;1.55;;;6.10;99.90;;;;;;5064174;28;20078;-58
2021/11/02 04:24:46;;;;;;;4.88;1.70;;;5.60;99.90;;;;;;5068132;28;20039;-57
2021/11/02 06:04:30;;;;;;;7.43;2.08;;;5.00;99.90;;;;;;5045552;28;20104;-62
2021/11/02 06:29:36;;;;;;;4.30;2.75;;;5.30;99.90;;;;;;5046565;28;20159;-57
2021/11/02 06:32:11;;;;;;;7.15;2.40;;;5.30;99.90;;;;;;5039619;28;20033;-61
2021/11/02 06:37:36;;;;;;;4.88;2.42;;;5.40;99.90;;;;;;5045948;28;20040;-60
2021/11/02 06:42:55;;;;;;;3.95;2.30;;;5.50;99.90;;;;;;5042298;28;20032;-62
2021/11/02 06:45:56;;;;;;;5.68;2.00;;;5.50;99.90;;;;;;5048557;28;20036;-60
2021/11/02 06:49:27;;;;;;;4.13;2.30;;;5.60;99.90;;;;;;5048821;28;20059;-61
2021/11/02 06:57:10;;;;;;;6.38;2.20;;;5.60;99.90;;;;;;5046467;28;20040;-62
2021/11/02 07:19:43;;;;;;;4.53;2.00;;;6.20;99.90;;;;;;5044841;28;20035;-61
2021/11/02 07:22:24;;;;;;;5.53;1.88;;;6.30;99.90;;;;;;5042551;28;20028;-61
2021/11/02 07:27:33;;;;;;;5.97;1.70;;;6.40;99.90;;;;;;5039181;28;20104;-62
2021/11/02 08:46:51;;;;;;;3.45;1.50;;;9.20;99.90;;;;;;5041666;28;20454;-54
2021/11/02 08:49:17;;;;;;;7.60;2.28;;;9.50;99.90;;;;;;5051286;28;20449;-58
2021/11/02 08:51:43;;;;;;;4.60;1.08;;;9.60;99.90;;;;;;5046580;28;20028;-60
2021/11/02 08:54:10;;;;;;;2.95;1.50;;;9.80;99.90;;;;;;5048311;28;20021;-58
2021/11/02 08:56:36;;;;;;;3.35;1.63;;;9.80;99.90;;;;;;5047653;28;20102;-61
2021/11/02 08:59:02;;;;;;;2.58;1.10;;;9.80;99.90;;;;;;5044079;28;20104;-56
2021/11/02 09:01:28;;;;;;;6.32;1.98;;;9.90;99.90;;;;;;5010093;28;20559;-61
2021/11/02 09:04:00;;;;;;;3.40;2.03;;;9.80;99.90;;;;;;5042549;28;20522;-62
2021/11/02 09:06:27;;;;;;;3.53;1.48;;;9.90;99.90;;;;;;5044213;28;20035;-61
2021/11/02 09:08:55;;;;;;;8.27;1.67;;;10.00;99.90;;;;;;5050827;28;20017;-60
2021/11/02 09:11:22;;;;;;;5.22;2.05;;;10.00;99.90;;;;;;5049139;28;20079;-62
2021/11/02 09:13:56;;;;;;;3.63;1.40;;;10.00;99.90;;;;;;5043548;28;20037;-63
2021/11/02 09:16:26;;;;;;;4.88;1.60;;;10.10;99.90;;;;;;5046402;28;20120;-61
2021/11/02 09:18:54;;;;;;;4.05;1.30;;;10.10;99.90;;;;;;5042786;28;20029;-62
2021/11/02 09:21:21;;;;;;;4.50;1.13;;;10.20;99.90;;;;;;5049622;28;20115;-61
2021/11/02 09:23:49;;;;;;;5.25;1.65;;;10.30;99.90;;;;;;5053271;28;20036;-62
2021/11/02 09:26:18;;;;;;;5.47;1.48;;;10.30;99.90;;;;;;5050476;28;20037;-60
2021/11/02 09:28:45;;;;;;;3.53;1.50;;;10.50;99.90;;;;;;5049382;28;20031;-63
2021/11/02 09:31:12;;;;;;;5.70;1.42;;;10.50;99.90;;;;;;5049547;28;20017;-62
2021/11/02 09:33:38;;;;;;;8.80;2.03;;;10.70;99.90;;;;;;5050494;28;20059;-61
2021/11/02 09:36:13;;;;;;;4.00;1.23;;;10.80;99.90;;;;;;5049385;28;20068;-60
2021/11/02 09:38:49;;;;;;;1.58;1.08;;;11.00;99.90;;;;;;5051343;28;20087;-59
2021/11/02 09:41:24;;;;;;;1.67;0.93;;;11.10;99.90;;;;;;5045688;28;20510;-61
2021/11/02 09:44:20;;;;;;;3.22;1.02;;;10.90;99.90;;;;;;5049245;28;20041;-61
2021/11/02 09:47:08;;;;;;;3.08;1.45;;;11.00;99.90;;;;;;5045414;28;20042;-60
2021/11/02 09:50:09;;;;;;;3.75;1.40;;;11.00;99.90;;;;;;5052241;28;20027;-60
2021/11/02 09:52:56;;;;;;;5.18;1.20;;;11.00;99.90;;;;;;5049479;28;20035;-61
2021/11/02 09:55:46;;;;;;;4.32;1.33;;;11.30;99.90;;;;;;5052585;28;20155;-62
2021/11/02 09:58:52;;;;;;;3.03;1.15;;;11.60;99.90;;;;;;5050594;28;20079;-62
2021/11/02 10:01:31;;;;;;;3.22;1.33;;;11.90;99.90;;;;;;5017475;28;20567;-62
2021/11/02 10:03:59;;;;;;;3.63;1.40;;;11.70;99.90;;;;;;5051309;28;20028;-58
2021/11/02 10:06:36;;;;;;;4.57;1.50;;;11.70;99.90;;;;;;5050826;28;20029;-62
2021/11/02 10:09:27;;;;;;;2.53;1.20;;;11.40;99.90;;;;;;5051652;28;20104;-61
2021/11/02 10:12:02;;;;;;;3.35;1.10;;;11.30;99.90;;;;;;5047314;28;20453;-61
2021/11/02 10:14:45;;;;;;;4.50;1.30;;;11.30;99.90;;;;;;5044709;28;20043;-62
2021/11/02 10:17:21;;;;;;;4.60;1.27;;;11.30;99.90;;;;;;5047467;28;20024;-60
2021/11/02 10:20:06;;;;;;;2.15;1.00;;;11.40;99.90;;;;;;5049067;28;20048;-61
2021/11/02 10:22:36;;;;;;;6.35;1.83;;;11.40;99.90;;;;;;5042246;28;20466;-61
2021/11/02 10:25:12;;;;;;;4.10;1.17;;;11.30;99.90;;;;;;5039391;28;20060;-60
2021/11/02 10:27:59;;;;;;;2.92;1.48;;;11.50;99.90;;;;;;5047075;28;20024;-60
2021/11/02 10:30:35;;;;;;;8.15;2.03;;;11.50;99.90;;;;;;5049615;28;20029;-60
2021/11/02 10:33:23;;;;;;;3.70;1.55;;;11.40;99.90;;;;;;5034922;28;20484;-61
2021/11/02 10:36:08;;;;;;;3.15;1.20;;;11.50;99.90;;;;;;5045668;28;20075;-60
2021/11/02 10:39:06;;;;;;;2.20;1.77;;;11.50;99.90;;;;;;5047964;28;20699;-62
2021/11/02 10:41:45;;;;;;;5.15;1.30;;;11.40;99.90;;;;;;5045282;28;20028;-61
2021/11/02 10:44:17;;;;;;;2.85;1.52;;;11.30;99.90;;;;;;5040679;28;20029;-61
2021/11/02 10:47:15;;;;;;;4.00;1.60;;;11.20;99.90;;;;;;5045331;28;20071;-61
2021/11/02 10:50:00;;;;;;;9.43;3.78;;;10.90;99.90;;;;;;5047367;28;20033;-61
2021/11/02 10:52:28;;;;;;;5.13;1.88;;;10.70;99.90;;;;;;5047381;28;20051;-60
2021/11/02 10:55:12;;;;;;;3.83;1.30;;;10.80;99.90;;;;;;5037599;28;20417;-61
2021/11/02 10:57:50;;;;;;;5.38;2.20;;;10.90;99.90;;;;;;5042985;28;20512;-61
2021/11/02 11:00:16;;;;;;;4.70;1.42;;;11.00;99.90;;;;;;5045275;28;20083;-61
2021/11/02 11:02:45;;;;;;;3.28;1.30;;;11.00;99.90;;;;;;5018760;28;20045;-59
2021/11/02 11:05:11;;;;;;;7.50;2.42;;;11.10;99.90;;;;;;5038462;28;20029;-62
2021/11/02 11:07:38;;;;;;;4.68;2.78;;;11.10;99.90;;;;;;5036945;28;20025;-60
2021/11/02 11:10:06;;;;;;;4.80;2.58;;;11.10;99.90;;;;;;5045341;28;20060;-61
2021/11/02 11:12:51;;;;;;;6.75;4.32;;;11.10;99.90;;;;;;5048897;28;20033;-61
2021/11/02 11:15:17;;;;;;;4.32;1.58;;;11.10;99.90;;;;;;5048434;28;20093;-61
2021/11/02 11:17:51;;;;;;;9.32;5.45;;;11.00;99.90;;;;;;5049900;28;20029;-61
2021/11/02 11:20:18;;;;;;;4.80;3.03;;;10.90;99.90;;;;;;5038453;28;20051;-62
2021/11/02 11:22:47;;;;;;;4.45;1.48;;;10.80;99.90;;;;;;5035472;28;20036;-60
2021/11/02 11:25:16;;;;;;;4.70;1.63;;;10.80;99.90;;;;;;5039165;28;20483;-60
2021/11/02 11:27:51;;;;;;;7.80;5.20;;;10.80;99.90;;;;;;5033312;28;20033;-61
2021/11/02 11:30:18;;;;;;;4.78;2.47;;;10.60;99.90;;;;;;5038533;28;20021;-58
2021/11/02 11:32:48;;;;;;;6.53;2.03;;;10.50;99.90;;;;;;5037340;28;20029;-60
2021/11/02 11:35:14;;;;;;;5.53;1.50;;;10.50;99.90;;;;;;5045856;28;20025;-61
2021/11/02 11:37:45;;;;;;;2.00;1.23;;;10.50;99.90;;;;;;5032964;28;20086;-61
2021/11/02 11:40:14;;;;;;;7.20;1.73;;;10.60;99.90;;;;;;5047046;28;20025;-61
2021/11/02 11:42:40;;;;;;;2.83;1.60;;;10.60;99.90;;;;;;5046519;28;20482;-61
2021/11/02 11:45:28;;;;;;;4.63;1.60;;;10.70;99.90;;;;;;5044420;28;20025;-58
2021/11/02 11:48:10;;;;;;;4.30;1.55;;;10.90;99.90;;;;;;5049991;28;20025;-62
2021/11/02 11:50:38;;;;;;;4.22;1.70;;;11.10;99.90;;;;;;5048800;28;20493;-60
2021/11/02 11:53:05;;;;;;;4.35;1.50;;;11.20;99.90;;;;;;5046360;28;20053;-58
2021/11/02 11:55:36;;;;;;;2.03;1.35;;;11.30;99.90;;;;;;5048561;28;20029;-62
2021/11/02 11:58:25;;;;;;;4.05;1.90;;;11.60;99.90;;;;;;5048006;28;20029;-61
2021/11/02 12:00:53;;;;;;;1.45;1.00;;;11.70;99.90;;;;;;5033537;28;20037;-62
2021/11/02 12:03:44;;;;;;;4.10;1.40;;;11.70;99.90;;;;;;5021184;28;20103;-61
2021/11/02 12:06:48;;;;;;;3.25;1.20;;;11.70;99.90;;;;;;5028052;28;20037;-60
2021/11/02 12:09:19;;;;;;;2.75;1.42;;;11.80;99.90;;;;;;5042804;28;20025;-62
2021/11/02 12:11:46;;;;;;;4.45;1.02;;;11.70;99.90;;;;;;5050073;28;20051;-62
2021/11/02 12:14:24;;;;;;;2.30;1.30;;;11.70;99.90;;;;;;5045270;28;20017;-62
2021/11/02 12:16:50;;;;;;;3.10;0.90;;;11.80;99.90;;;;;;5048061;28;20036;-61
2021/11/02 12:19:34;;;;;;;5.55;1.40;;;11.80;99.90;;;;;;5048859;28;20052;-60
2021/11/02 12:22:04;;;;;;;3.30;1.20;;;11.70;99.90;;;;;;5051120;28;20032;-62
2021/11/02 12:24:34;;;;;;;3.67;1.27;;;11.80;99.90;;;;;;5045124;28;20032;-61
2021/11/02 12:27:18;;;;;;;2.83;1.38;;;11.70;99.90;;;;;;5047573;28;20119;-61
2021/11/02 12:29:44;;;;;;;11.15;1.35;;;11.60;99.90;;;;;;5048758;28;20021;-59
2021/11/02 12:32:11;;;;;;;3.15;1.40;;;11.60;99.90;;;;;;5044561;28;20113;-61
2021/11/02 12:34:45;;;;;;;7.03;1.63;;;11.50;99.90;;;;;;5040290;28;20022;-60
2021/11/02 12:37:13;;;;;;;2.92;1.33;;;11.40;99.90;;;;;;5044293;28;20022;-60
2021/11/02 12:39:39;;;;;;;3.35;1.38;;;11.20;99.90;;;;;;5048453;28;20067;-59
2021/11/02 12:42:05;;;;;;;2.95;1.38;;;11.20;99.90;;;;;;5048809;28;20118;-61
2021/11/02 12:44:36;;;;;;;2.95;1.60;;;11.20;99.90;;;;;;5047094;28;20029;-59
2021/11/02 12:47:04;;;;;;;5.35;1.50;;;11.10;99.90;;;;;;5050691;28;20024;-56
2021/11/02 12:49:52;;;;;;;4.03;1.60;;;11.10;99.90;;;;;;5053355;28;20021;-58
2021/11/02 12:52:20;;;;;;;5.93;1.90;;;10.90;99.90;;;;;;5044029;28;20017;-62
2021/11/02 12:55:05;;;;;;;3.17;1.58;;;10.90;99.90;;;;;;5049348;28;20483;-62
2021/11/02 12:57:34;;;;;;;3.78;1.60;;;11.10;99.90;;;;;;5050849;28;20029;-59
2021/11/02 13:00:01;;;;;;;4.95;2.17;;;11.30;99.90;;;;;;5046812;28;20728;-58
2021/11/02 13:02:35;;;;;;;2.42;1.80;;;11.50;99.90;;;;;;5046757;28;20027;-61
2021/11/02 13:05:02;;;;;;;;;;;11.70;99.90;;;;;;5050480;28;20474;-61
2021/11/02 13:07:38;;;;;;;2.38;1.05;;;11.70;99.90;;;;;;5045466;28;19917;-59
2021/11/02 13:10:15;;;;;;;3.53;1.92;;;11.80;99.90;;;;;;5040591;28;20435;-62
2021/11/02 13:12:43;;;;;;;2.95;1.20;;;11.80;99.90;;;;;;5049020;28;20055;-51
2021/11/02 13:15:11;;;;;;;1.75;1.58;;;11.70;99.90;;;;;;5041109;28;20036;-60
2021/11/02 13:17:48;;;;;;;3.05;1.52;;;11.60;99.90;;;;;;5047789;28;20025;-61
2021/11/02 13:20:43;;;;;;;4.82;2.50;;;11.50;99.90;;;;;;5047891;28;20024;-61
2021/11/02 13:23:09;;;;;;;2.88;1.60;;;11.20;99.90;;;;;;5046643;28;20516;-60
2021/11/02 13:25:38;;;;;;;3.35;1.63;;;11.00;99.90;;;;;;5043393;28;20112;-59
2021/11/02 13:28:04;;;;;;;4.65;1.63;;;10.90;99.90;;;;;;5032599;28;20029;-61
2021/11/02 13:30:43;;;;;;;10.48;1.92;;;10.70;99.90;;;;;;5039629;28;20036;-58
2021/11/02 13:33:10;;;;;;;4.40;1.80;;;10.60;99.90;;;;;;5044610;28;20028;-61
2021/11/02 13:35:42;;;;;;;4.82;1.95;;;10.50;99.90;;;;;;5040972;28;20103;-60
2021/11/02 13:38:33;;;;;;;8.70;1.63;;;10.40;99.90;;;;;;5049025;28;20517;-59
2021/11/02 13:41:03;;;;;;;3.90;1.80;;;10.30;99.90;;;;;;5048284;28;20037;-60
2021/11/02 13:43:37;;;;;;;3.78;2.10;;;10.30;99.90;;;;;;5037967;28;20013;-61
2021/11/02 13:46:04;;;;;;;4.07;2.25;;;10.20;99.90;;;;;;5039113;28;20060;-57
2021/11/02 13:48:32;;;;;;;4.15;1.77;;;10.20;99.90;;;;;;5046157;28;20017;-60
2021/11/02 13:50:58;;;;;;;3.97;1.90;;;10.20;99.90;;;;;;5042146;28;20056;-61
2021/11/02 13:53:24;;;;;;;6.55;1.92;;;10.20;99.90;;;;;;5045537;28;20047;-61
2021/11/02 13:55:50;;;;;;;8.15;1.85;;;10.20;99.90;;;;;;5043412;28;20391;-58
2021/11/02 13:58:16;;;;;;;5.55;1.90;;;10.20;99.90;;;;;;5049579;28;20063;-60
2021/11/02 14:00:44;;;;;;;5.28;1.55;;;10.20;99.90;;;;;;5042636;28;20068;-56
2021/11/02 14:03:15;;;;;;;3.72;1.67;;;10.20;99.90;;;;;;5046534;28;20033;-54
2021/11/02 14:05:43;;;;;;;6.47;1.85;;;10.10;99.90;;;;;;5048445;28;20021;-60
2021/11/02 14:08:09;;;;;;;5.97;1.85;;;10.10;99.90;;;;;;5044327;28;20414;-61
2021/11/02 14:10:35;;;;;;;3.75;1.92;;;10.00;99.90;;;;;;5043231;28;20438;-61
2021/11/02 14:13:01;;;;;;;8.35;2.78;;;9.90;99.90;;;;;;5049727;28;20070;-59
2021/11/02 14:15:29;;;;;;;5.05;1.65;;;9.90;99.90;;;;;;5047785;28;20035;-60
2021/11/02 14:17:57;;;;;;;4.90;1.80;;;9.80;99.90;;;;;;5044824;28;20033;-60
2021/11/02 14:20:36;;;;;;;4.40;2.35;;;9.80;99.90;;;;;;5023608;28;20122;-59
2021/11/02 14:23:04;;;;;;;7.55;4.03;;;9.80;99.90;;;;;;5047928;28;20203;-60
2021/11/02 14:25:34;;;;;;;5.70;1.92;;;9.70;99.90;;;;;;5045877;28;20032;-61
2021/11/02 14:28:01;;;;;;;7.07;2.45;;;9.70;99.90;;;;;;5043232;28;20025;-60
2021/11/02 14:30:32;;;;;;;6.95;3.03;;;9.70;99.90;;;;;;5046419;28;20029;-61
2021/11/02 14:32:58;;;;;;;4.95;2.88;;;9.60;99.90;;;;;;5049267;28;20025;-56
2021/11/02 14:35:42;;;;;;;6.15;2.58;;;9.70;99.90;;;;;;5042105;28;20098;-58
2021/11/02 14:38:12;;;;;;;39.22;19.60;;;9.60;99.90;;;;;;5047756;28;20078;-60
2021/11/02 14:40:44;;;;;;;10.50;4.25;;;9.50;99.90;;;;;;5039932;28;20519;-58
2021/11/02 14:43:13;;;;;;;10.70;5.72;;;9.60;99.90;;;;;;5048975;28;20029;-58
2021/11/02 14:45:49;;;;;;;5.70;2.80;;;9.50;99.90;;;;;;5041144;28;20053;-59
2021/11/02 14:48:32;;;;;;;6.43;2.72;;;9.50;99.90;;;;;;5042113;28;20474;-61
2021/11/02 14:51:08;;;;;;;5.97;2.73;;;9.40;99.90;;;;;;5044590;28;20064;-59
2021/11/02 14:53:37;;;;;;;6.03;3.15;;;9.50;99.90;;;;;;5043269;28;20263;-61
2021/11/02 14:56:09;;;;;;;8.82;3.20;;;9.50;99.90;;;;;;5048124;28;20470;-59
2021/11/02 15:01:46;;;;;;;8.43;4.90;;;9.40;99.90;;;;;;5045937;28;20032;-60
2021/11/02 15:04:19;;;;;;;12.35;7.45;;;9.40;99.90;;;;;;4972029;28;20034;-61
2021/11/02 15:06:52;;;;;;;23.60;12.57;;;9.30;99.90;;;;;;4976776;28;20035;-56
2021/11/02 15:09:20;;;;;;;11.50;7.50;;;9.20;99.90;;;;;;5012964;28;20033;-59
2021/11/02 15:11:47;;;;;;;9.73;4.38;;;9.20;99.90;;;;;;5045972;28;20090;-61
2021/11/02 15:14:20;;;;;;;6.65;4.32;;;9.30;99.90;;;;;;5048242;28;20049;-60
2021/11/02 15:16:48;;;;;;;4.60;3.60;;;9.40;99.90;;;;;;5048163;28;20041;-61
2021/11/02 15:19:15;;;;;;;5.72;3.30;;;9.40;99.90;;;;;;5036096;28;20033;-61
2021/11/02 15:21:53;;;;;;;7.38;3.22;;;9.50;99.90;;;;;;5040269;28;20040;-59
2021/11/02 15:24:49;;;;;;;8.00;3.92;;;9.50;99.90;;;;;;5041991;28;20032;-60
2021/11/02 15:27:18;;;;;;;6.90;3.17;;;9.50;99.90;;;;;;5035915;28;20045;-56
2021/11/02 15:29:46;;;;;;;7.63;3.20;;;9.50;99.90;;;;;;5044408;28;20158;-61
2021/11/02 15:32:13;;;;;;;8.70;3.85;;;9.50;99.90;;;;;;5041451;28;20094;-60
2021/11/02 15:34:49;;;;;;;4.78;3.53;;;9.40;99.90;;;;;;5045222;28;20021;-60
2021/11/02 15:37:33;;;;;;;6.18;3.97;;;9.40;99.90;;;;;;5046624;28;20538;-58
2021/11/02 15:40:09;;;;;;;7.53;4.53;;;9.30;99.90;;;;;;5047753;28;20021;-55
2021/11/02 15:42:41;;;;;;;7.55;4.50;;;9.30;99.90;;;;;;5046419;28;20452;-60
2021/11/02 15:45:21;;;;;;;9.98;5.07;;;9.20;99.90;;;;;;5048176;28;20136;-60
2021/11/02 15:47:51;;;;;;;9.13;4.90;;;9.20;99.90;;;;;;5044907;28;20119;-59
2021/11/02 15:50:23;;;;;;;9.65;3.95;;;9.20;99.90;;;;;;5043441;28;20044;-61
2021/11/02 15:52:49;;;;;;;7.25;3.95;;;9.10;99.90;;;;;;5048284;28;20104;-55
2021/11/02 15:55:19;;;;;;;8.52;4.22;;;9.10;99.90;;;;;;5043547;28;20553;-60
2021/11/02 15:58:02;;;;;;;11.57;6.65;;;9.00;99.90;;;;;;5038388;28;20129;-61
2021/11/02 16:00:33;;;;;;;72.55;32.97;;;9.00;99.90;;;;;;5042067;28;20394;-57
2021/11/02 16:02:59;;;;;;;25.80;13.63;;;8.90;99.90;;;;;;5046413;28;20390;-57
2021/11/02 16:05:26;;;;;;;11.88;5.50;;;8.90;99.90;;;;;;5039138;28;20086;-59
2021/11/02 16:07:56;;;;;;;9.75;5.30;;;8.90;99.90;;;;;;5030539;28;20514;-62
2021/11/02 16:10:28;;;;;;;24.08;13.77;;;8.90;99.90;;;;;;5039093;28;20502;-59
2021/11/02 16:12:54;;;;;;;10.68;6.65;;;8.80;99.90;;;;;;5038027;28;20031;-57
2021/11/02 16:15:28;;;;;;;11.50;6.13;;;8.80;99.90;;;;;;5045001;28;20517;-59
2021/11/02 16:17:59;;;;;;;9.65;5.10;;;8.80;99.90;;;;;;5049004;28;20037;-59
2021/11/02 16:20:37;;;;;;;12.27;6.43;;;8.80;99.90;;;;;;5024329;28;20048;-56
2021/11/02 16:23:08;;;;;;;19.73;8.70;;;8.80;99.90;;;;;;5048111;28;20039;-60
2021/11/02 16:25:37;;;;;;;44.78;24.13;;;8.70;99.90;;;;;;5043683;28;20039;-59
2021/11/02 16:28:13;;;;;;;59.33;31.48;;;8.80;99.90;;;;;;5048751;28;20020;-59
2021/11/02 16:30:42;;;;;;;30.15;19.13;;;8.70;99.90;;;;;;5048031;28;20025;-61
2021/11/02 16:33:09;;;;;;;42.83;24.77;;;8.70;99.90;;;;;;5049410;28;20029;-60
2021/11/02 16:35:43;;;;;;;38.22;22.55;;;8.70;99.90;;;;;;5043219;28;20025;-60
2021/11/02 16:38:26;;;;;;;13.68;7.53;;;8.70;99.90;;;;;;5044819;28;20041;-58
2021/11/02 16:40:54;;;;;;;9.82;5.53;;;8.70;99.90;;;;;;5044680;28;20018;-58
2021/11/02 16:43:32;;;;;;;11.48;6.75;;;8.70;99.90;;;;;;5047846;28;20056;-60
2021/11/02 16:45:58;;;;;;;11.77;7.45;;;8.60;99.90;;;;;;5045556;28;20136;-58
2021/11/02 16:48:45;;;;;;;30.48;16.95;;;8.60;99.90;;;;;;5045499;28;20382;-58
2021/11/02 16:51:14;;;;;;;33.65;15.23;;;8.50;99.90;;;;;;5038148;28;20026;-61
2021/11/02 16:53:40;;;;;;;125.47;60.97;;;8.50;99.90;;;;;;5046365;28;20146;-61
2021/11/02 16:56:23;;;;;;;42.88;22.33;;;8.50;99.90;;;;;;5042641;28;20108;-61
2021/11/02 16:58:52;;;;;;;29.30;12.63;;;8.50;99.90;;;;;;5049640;28;20139;-62
2021/11/02 17:01:17;;;;;;;33.05;15.52;;;8.40;99.90;;;;;;5045487;28;20017;-61
2021/11/02 17:03:45;;;;;;;25.00;14.82;;;8.40;99.90;;;;;;5047746;28;20040;-61
2021/11/02 17:06:13;;;;;;;19.75;9.80;;;8.40;99.90;;;;;;5013041;28;20083;-61
2021/11/02 17:08:46;;;;;;;61.45;29.23;;;8.30;99.90;;;;;;5040356;28;20052;-57
2021/11/02 17:11:22;;;;;;;50.78;23.48;;;8.30;99.90;;;;;;5044518;28;20064;-59
2021/11/02 17:13:49;;;;;;;27.48;14.25;;;8.30;99.90;;;;;;5050205;28;20060;-59
2021/11/02 17:16:17;;;;;;;25.25;13.60;;;8.20;99.90;;;;;;5052039;28;20037;-58
2021/11/02 17:18:56;;;;;;;43.90;24.13;;;8.20;99.90;;;;;;5051649;28;20108;-53
2021/11/02 17:21:30;;;;;;;21.48;12.52;;;8.20;99.90;;;;;;5049777;28;20080;-56
2021/11/02 17:23:57;;;;;;;;;;;8.10;99.90;;;;;;5050245;28;20091;-59
2021/11/02 17:26:25;;;;;;;35.35;20.08;;;8.00;99.90;;;;;;5051541;28;19912;-61
2021/11/02 17:28:53;;;;;;;48.03;25.55;;;8.00;99.90;;;;;;5050446;28;20021;-59
2021/11/02 17:31:21;;;;;;;45.53;26.23;;;8.00;99.90;;;;;;5049869;28;20059;-58
2021/11/02 17:33:48;;;;;;;36.90;22.00;;;8.00;99.90;;;;;;5051070;28;20029;-58
2021/11/02 17:36:18;;;;;;;15.27;10.50;;;7.90;99.90;;;;;;5048195;28;20029;-60
2021/11/02 17:38:46;;;;;;;18.73;10.60;;;7.90;99.90;;;;;;5050341;28;20025;-50
2021/11/02 17:41:15;;;;;;;19.08;10.88;;;7.90;99.90;;;;;;5051195;28;20050;-59
2021/11/02 17:43:47;;;;;;;17.65;9.38;;;7.90;99.90;;;;;;5044717;28;20540;-60
2021/11/02 17:46:14;;;;;;;9.18;5.18;;;7.80;99.90;;;;;;5050573;28;20017;-60
2021/11/02 17:48:41;;;;;;;11.82;8.10;;;7.80;99.90;;;;;;5048063;28;20013;-60
2021/11/02 17:51:07;;;;;;;12.20;7.95;;;7.80;99.90;;;;;;5047260;28;20030;-59
2021/11/02 17:53:34;;;;;;;10.82;8.02;;;7.80;99.90;;;;;;5048164;28;20053;-59
2021/11/02 17:56:03;;;;;;;15.55;9.73;;;7.80;99.90;;;;;;5048639;28;20025;-58
2021/11/02 17:58:29;;;;;;;13.25;9.30;;;7.70;99.90;;;;;;5041070;28;20033;-60
2021/11/02 18:00:59;;;;;;;13.18;9.15;;;7.70;99.90;;;;;;5049058;28;20033;-59
2021/11/02 18:03:27;;;;;;;11.93;7.85;;;7.60;99.90;;;;;;5047484;28;20047;-57
2021/11/02 18:05:55;;;;;;;11.52;8.63;;;7.60;99.90;;;;;;5048923;28;20502;-57
2021/11/02 18:08:20;;;;;;;9.60;5.90;;;7.50;99.90;;;;;;5019384;28;20104;-56